Terminal Aerodrome Forecast
Issued by NWS

Home | Current Version | Previous Version | Text Only | Print | Product List | Glossary On
Versions: 1 2 3 4 5 6 7 8 9 10 11 12 13 14 15 16 17 18
000
FTUS46 KOTX 271306 AAA
TAFCOE
TAF AMD
KCOE 271306Z 2713/2812 15005KT 6SM -RA BR SCT010 OVC017
     FM271500 20008KT 4SM -SHRA SCT014 BKN025
     FM272200 23010KT P6SM VCSH BKN027 BKN050
     FM280100 21006KT P6SM BKN100
     FM280400 21005KT P6SM BKN250=

USA.gov is the U.S. government's official web portal to all federal, state and local government web resources and services.